• Join FlightAware (Why Join?)
  • Login
  • US Flag 
03:09AM EDT


 

Airport Tracker/Info


-or-


 

Live Flight TrackerFlight Track Log ✈ N317FL ✈ 24-Apr-2013 ✈ KBWI - KBOS

Flight Track Log - Related Links

Times and Time Zones

All times are in EDT time to prevent confusion due to time zone crossing. See the N317FL flight status page for this flight to view local times or setup timezone preferences in your user account.

Time Position Orientation Groundspeed Altitude Reporting Facility
EDT Latitude Longitude Course Direction KTS MPH feet Rate Location/Type
01:35PM 39.1290 -76.5560 112° Southeast 240 276 6,100  Level FlightAware
01:36PM 39.1180 -76.5220 113° Southeast 258 297 7,500 3,120 Climbing FlightAware
01:36PM 39.1060 -76.4740 108° East 289 333 9,000 3,120 Climbing FlightAware
01:37PM 39.1180 -76.4040 78° East 308 354 11,200 3,360 Climbing FlightAware
01:37PM 39.1317 -76.3343 76° East 323 372 13,200 3,300 Climbing FlightAware ADS-B
01:38PM 39.1443 -76.2674 76° East 330 380 15,100 3,180 Climbing FlightAware ADS-B
01:38PM 39.1524 -76.2215 77° East 334 384 16,400 3,240 Climbing FlightAware ADS-B
01:39PM 39.1569 -76.1812 82° East 335 386 17,500 3,180 Climbing FlightAware ADS-B
01:39PM 39.1621 -76.1372 81° East 336 387 18,700 3,180 Climbing FlightAware ADS-B
01:39PM 39.1657 -76.1220 73° East 337 388 19,100 3,000 Climbing FlightAware ADS-B
01:39PM 39.1703 -76.1111 61° Northeast 337 388 19,400 3,000 Climbing FlightAware ADS-B
01:39PM 39.1750 -76.1028 54° Northeast 335 386 19,700 3,180 Climbing FlightAware ADS-B
01:40PM 39.2077 -76.0485 52° Northeast 331 381 21,500 2,400 Climbing FlightAware ADS-B
01:40PM 39.2366 -75.9983 53° Northeast 353 406 22,300 1,200 Climbing FlightAware ADS-B
01:41PM 39.2682 -75.9439 53° Northeast 375 432 22,800 1,500 Climbing FlightAware ADS-B
01:42PM 39.3022 -75.8853 53° Northeast 383 441 23,900 2,280 Climbing FlightAware ADS-B
01:42PM 39.3344 -75.8295 53° Northeast 377 434 25,200 2,700 Climbing FlightAware ADS-B
01:43PM 39.3691 -75.7692 53° Northeast 370 426 26,800 2,580 Climbing FlightAware ADS-B
01:43PM 39.4005 -75.7147 53° Northeast 370 426 28,000 2,220 Climbing FlightAware ADS-B
01:44PM 39.4315 -75.6609 53° Northeast 374 430 29,100 2,040 Climbing FlightAware ADS-B
01:44PM 39.4655 -75.6018 53° Northeast 380 437 30,200 1,920 Climbing FlightAware ADS-B
01:45PM 39.4979 -75.5454 53° Northeast 385 443 31,200 1,920 Climbing FlightAware ADS-B
01:45PM 39.5300 -75.4892 53° Northeast 390 449 32,200 1,920 Climbing FlightAware ADS-B
01:46PM 39.5701 -75.4188 54° Northeast 393 452 33,400 1,740 Climbing FlightAware ADS-B
01:46PM 39.6045 -75.3585 53° Northeast 396 456 34,200 1,680 Climbing FlightAware ADS-B
01:47PM 39.6407 -75.2965 53° Northeast 394 453 35,200 1,680 Climbing FlightAware ADS-B
01:47PM 39.6788 -75.2429 47° Northeast 391 450 36,000 1,320 Climbing FlightAware ADS-B
01:48PM 39.7159 -75.1907 47° Northeast 398 458 36,600 960 Climbing FlightAware ADS-B
01:48PM 39.7537 -75.1371 47° Northeast 406 467 37,000 360 Climbing FlightAware ADS-B
01:49PM 39.7944 -75.0794 47° Northeast 418 481 37,000  Level FlightAware ADS-B
01:49PM 39.8372 -75.0188 47° Northeast 428 493 37,000  Level FlightAware ADS-B
01:50PM 39.8781 -74.9606 48° Northeast 437 503 37,000  Level FlightAware ADS-B
01:50PM 39.9197 -74.9014 47° Northeast 442 509 37,000  Level FlightAware ADS-B
01:51PM 39.9630 -74.8394 48° Northeast 446 513 37,000  Level FlightAware ADS-B
01:52PM 40.0096 -74.7727 48° Northeast 447 514 37,000  Level FlightAware ADS-B
01:52PM 40.0553 -74.7069 48° Northeast 445 512 37,000  Level FlightAware ADS-B
01:53PM 40.0972 -74.6467 48° Northeast 442 509 37,000  Level FlightAware ADS-B
01:53PM 40.1385 -74.5872 48° Northeast 442 509 37,000  Level FlightAware ADS-B
01:54PM 40.1797 -74.5279 48° Northeast 442 509 37,000  Level FlightAware ADS-B
01:54PM 40.2082 -74.4859 48° Northeast 441 507 37,000  Level FlightAware ADS-B
01:54PM 40.2496 -74.4193 51° Northeast 442 509 37,000  Level FlightAware ADS-B
01:55PM 40.2897 -74.3552 51° Northeast 441 507 37,000  Level FlightAware ADS-B
01:56PM 40.3298 -74.2913 51° Northeast 440 506 37,000  Level FlightAware ADS-B
01:56PM 40.3697 -74.2279 50° Northeast 439 505 37,000  Level FlightAware ADS-B
01:57PM 40.4090 -74.1654 50° Northeast 438 504 37,000  Level FlightAware ADS-B
01:57PM 40.4540 -74.0940 50° Northeast 437 503 37,000  Level FlightAware
01:57PM 40.4641 -74.0773 52° Northeast 437 503 37,000  Level FlightAware ADS-B
01:58PM 40.5043 -74.0131 51° Northeast 437 503 37,000 -600 Level FlightAware ADS-B
01:58PM 40.5463 -73.9457 51° Northeast 434 499 36,400 -1,740 Descending FlightAware ADS-B
01:59PM 40.5851 -73.8833 51° Northeast 427 491 35,200 -2,280 Descending FlightAware ADS-B
01:59PM 40.6256 -73.8181 51° Northeast 420 483 34,000 -2,280 Descending FlightAware ADS-B
02:00PM 40.6634 -73.7570 51° Northeast 414 476 32,800 -2,160 Descending FlightAware ADS-B
02:01PM 40.7160 -73.6710 51° Northeast 423 487 31,300 -2,220 Descending FlightAware
02:01PM 40.7434 -73.6276 50° Northeast 429 494 30,400 -2,460 Descending FlightAware ADS-B
02:02PM 40.7959 -73.5422 51° Northeast 439 505 28,800 -2,340 Descending FlightAware ADS-B
02:02PM 40.8508 -73.4528 51° Northeast 438 504 27,200 -1,980 Descending FlightAware ADS-B
02:03PM 40.8958 -73.3842 49° Northeast 423 487 26,300 -1,740 Descending FlightAware ADS-B
02:03PM 40.9375 -73.3237 48° Northeast 418 481 25,300 -1,920 Descending FlightAware ADS-B
02:04PM 40.9840 -73.2560 48° Northeast 412 474 24,100 -1,980 Descending FlightAware
02:04PM 41.0000 -73.2313 49° Northeast 411 473 23,700 -1,320 Descending FlightAware ADS-B
02:05PM 41.0377 -73.1754 48° Northeast 402 463 23,200 -600 Descending FlightAware ADS-B
02:06PM 41.0850 -73.1040 49° Northeast 383 441 23,000 -180 Descending FlightAware
02:06PM 41.1170 -73.0220 63° Northeast 383 441 23,000  Level FlightAware
02:07PM 41.1550 -72.9250 62° Northeast 387 445 23,000  Level FlightAware
02:08PM 41.1890 -72.8380 63° Northeast 391 450 23,000  Level FlightAware
02:08PM 41.2250 -72.7450 63° Northeast 394 453 23,000  Level FlightAware
02:09PM 41.2590 -72.6570 63° Northeast 396 456 23,000  Level FlightAware
02:10PM 41.2910 -72.5760 62° Northeast 397 457 23,000  Level FlightAware
02:10PM 41.3280 -72.4790 63° Northeast 397 457 23,000  Level FlightAware
02:11PM 41.3720 -72.3650 63° Northeast 399 459 23,000  Level FlightAware
02:12PM 41.4000 -72.2910 63° Northeast 398 458 23,000 -300 Level FlightAware
02:13PM 41.4550 -72.1470 63° Northeast 396 456 22,500 -1,200 Descending FlightAware
02:14PM 41.4910 -72.0520 63° Northeast 388 447 20,900 -2,100 Descending FlightAware
02:14PM 41.5250 -71.9630 63° Northeast 381 438 19,600 -1,980 Descending FlightAware
02:15PM 41.5580 -71.8740 64° Northeast 375 432 18,100 -1,980 Descending FlightAware
02:16PM 41.5910 -71.7880 63° Northeast 369 425 16,800 -1,980 Descending FlightAware
02:17PM 41.6250 -71.6950 64° Northeast 363 418 15,300 -1,920 Descending FlightAware
02:17PM 41.6610 -71.6000 63° Northeast 344 396 13,800 -1,800 Descending FlightAware
02:18PM 41.6890 -71.5260 63° Northeast 318 366 12,600 -1,740 Descending FlightAware
02:19PM 41.7140 -71.4570 64° Northeast 312 359 11,500 -1,140 Descending FlightAware
02:19PM 41.7440 -71.3950 57° Northeast 290 334 11,100 -300 Descending FlightAware
02:20PM 41.7860 -71.3270 50° Northeast 319 367 11,100  Level FlightAware
02:21PM 41.8240 -71.2670 50° Northeast 317 365 11,100  Level FlightAware
02:21PM 41.8390 -71.2530 35° Northeast 309 356 11,100 -1,020 Level FlightAware
02:22PM 41.8930 -71.2300 18° North 288 331 10,200 -1,560 Descending FlightAware
02:22PM 41.9320 -71.2150 16° North 287 330 9,300 -1,740 Descending FlightAware
02:23PM 41.9670 -71.1970 21° North 286 329 8,500 -1,680 Descending FlightAware
02:23PM 41.9980 -71.1810 21° North 282 325 7,800 -1,800 Descending FlightAware
02:24PM 42.0370 -71.1630 19° North 279 321 6,900 -1,800 Descending FlightAware
02:24PM 42.0670 -71.1490 19° North 275 316 6,200 -1,680 Descending FlightAware
02:25PM 42.1020 -71.1320 20° North 272 313 5,400 -1,680 Descending FlightAware
02:25PM 42.1330 -71.1170 20° North 272 313 4,700 -1,800 Descending FlightAware
02:25PM 42.1640 -71.1020 20° North 266 306 3,800 -1,680 Descending FlightAware
02:26PM 42.1780 -71.0950 20° North 256 295 3,600 -960 Descending FlightAware
02:26PM 42.2170 -71.0810 15° North 228 262 3,100 -720 Descending FlightAware
02:27PM 42.2390 -71.0720 17° North 207 238 2,900 -900 Descending FlightAware
02:27PM 42.2790 -71.0530 19° North 177 204 2,100 -1,140 Descending FlightAware
02:28PM 42.2950 -71.0450 20° North 168 193 1,600 -1,020 Descending FlightAware
02:28PM 42.3170 -71.0340 20° North 140 161 1,200 -600 Descending FlightAware
02:29PM 42.3360 -71.0250 19° North 140 161 900 5,820 Descending FlightAware
02:30PM 42.3872 -71.0008 19° North 160 184 11,000 4,980 Climbing Boston Center
02:31PM 42.4286 -70.9775 23° Northeast 160 184 11,000  Level Boston Center
02:32PM 42.4700 -70.9567 20° North 160 184 11,000  Level Boston Center
02:33PM 42.5031 -70.9392 21° North 160 184 11,000  Level Boston Center
02:35PM 42.3559 -70.9977 196° South  Level FlightAware Approximate
02:42PM 42.3500 -71.0000 198° South  Level FlightAware Approximate
02:43PM 42.3630 -71.0064 198° South  Level Estimated
02:44PM 42.3630 -71.0064 198° South  Level Estimated
02:45PM 42.3630 -71.0064 198° South  Level Estimated